createdAt,value
2019-05-13T00:00:34.164Z,11.29
2019-05-13T00:03:03.863Z,11.60
2019-05-13T00:05:33.994Z,11.21
2019-05-13T00:08:03.590Z,11.83
2019-05-13T00:10:34.705Z,11.03
2019-05-13T00:13:04.339Z,11.04
2019-05-13T00:15:34.220Z,10.59
2019-05-13T00:18:03.968Z,11.00
2019-05-13T00:20:33.837Z,10.80
2019-05-13T00:23:03.935Z,10.92
2019-05-13T00:25:33.880Z,10.71
2019-05-13T00:28:04.011Z,10.88
2019-05-13T00:30:34.174Z,9.97
2019-05-13T00:33:03.797Z,10.27
2019-05-13T00:35:33.813Z,10.55
2019-05-13T00:38:03.801Z,10.25
2019-05-13T00:40:33.907Z,9.58
2019-05-13T00:43:03.787Z,9.09
2019-05-13T00:45:33.897Z,9.10
2019-05-13T00:48:04.565Z,8.60
2019-05-13T00:50:33.768Z,8.93
2019-05-13T00:53:04.295Z,8.77
2019-05-13T00:55:34.418Z,8.76
2019-05-13T00:58:04.281Z,9.29
2019-05-13T01:00:33.875Z,9.22
2019-05-13T01:03:04.013Z,8.58
2019-05-13T01:05:34.021Z,8.54
2019-05-13T01:08:04.313Z,8.56
2019-05-13T01:10:34.596Z,8.58
2019-05-13T01:13:04.745Z,8.36
2019-05-13T01:15:34.327Z,8.95
2019-05-13T01:18:04.002Z,8.84
2019-05-13T01:20:34.393Z,8.28
2019-05-13T01:23:03.906Z,8.26
2019-05-13T01:25:33.629Z,9.13
2019-05-13T01:28:04.538Z,9.25
2019-05-13T01:30:34.673Z,8.82
2019-05-13T01:33:04.299Z,8.92
2019-05-13T01:35:34.347Z,9.15
2019-05-13T01:38:04.524Z,8.63
2019-05-13T01:40:34.689Z,8.42
2019-05-13T01:43:04.214Z,8.38
2019-05-13T01:45:33.801Z,8.87
2019-05-13T01:48:06.776Z,8.97
2019-05-13T01:50:33.699Z,8.65
2019-05-13T01:53:04.128Z,8.58
2019-05-13T01:55:33.848Z,8.57
2019-05-13T01:58:04.305Z,8.42
2019-05-13T02:00:35.261Z,7.62
2019-05-13T02:03:04.167Z,8.30
2019-05-13T02:05:34.036Z,8.46
2019-05-13T02:08:04.459Z,7.96
2019-05-13T02:10:55.652Z,8.29
2019-05-13T02:13:25.083Z,8.58
2019-05-13T02:15:55.245Z,8.62
2019-05-13T02:18:24.853Z,8.36
2019-05-13T02:20:55.267Z,8.38
2019-05-13T02:23:24.413Z,8.58
2019-05-13T02:25:54.306Z,8.43
2019-05-13T02:28:24.669Z,8.08
2019-05-13T02:30:55.756Z,8.60
2019-05-13T02:33:24.107Z,7.93
2019-05-13T02:35:53.771Z,8.11
2019-05-13T02:38:28.979Z,8.50
2019-05-13T02:40:53.426Z,8.34
2019-05-13T02:43:23.700Z,7.84
2019-05-13T02:45:53.746Z,8.80
2019-05-13T02:48:23.912Z,8.69
2019-05-13T02:50:53.922Z,8.22
2019-05-13T02:53:24.118Z,8.46
2019-05-13T02:55:53.152Z,7.94
2019-05-13T02:58:24.524Z,8.20
2019-05-13T03:00:53.955Z,8.28
2019-05-13T03:03:23.453Z,8.46
2019-05-13T03:05:52.858Z,8.49
2019-05-13T03:08:38.503Z,8.82
2019-05-13T03:10:53.359Z,8.19
2019-05-13T03:13:23.631Z,7.83
2019-05-13T03:16:13.296Z,7.86
2019-05-13T03:18:43.612Z,8.09
2019-05-13T03:21:13.327Z,7.99
2019-05-13T03:23:44.159Z,7.97
2019-05-13T03:26:13.206Z,8.39
2019-05-13T03:28:43.718Z,8.73
2019-05-13T03:31:16.962Z,8.80
2019-05-13T03:33:46.259Z,8.38
2019-05-13T03:36:16.529Z,8.52
2019-05-13T03:38:59.288Z,8.09
2019-05-13T03:41:15.343Z,8.50
2019-05-13T03:43:45.004Z,8.63
2019-05-13T03:46:13.776Z,8.60
2019-05-13T03:48:42.989Z,8.43
2019-05-13T03:51:13.316Z,7.83
2019-05-13T03:53:43.409Z,8.21
2019-05-13T03:56:13.222Z,7.51
2019-05-13T03:58:43.307Z,7.87
2019-05-13T04:01:13.294Z,7.87
2019-05-13T04:03:44.044Z,8.10
2019-05-13T04:06:13.815Z,8.09
2019-05-13T04:08:43.857Z,8.50
2019-05-13T04:11:12.960Z,7.95
2019-05-13T04:13:42.996Z,8.96
2019-05-13T04:16:12.861Z,8.21
2019-05-13T04:18:42.786Z,8.18
2019-05-13T04:21:13.014Z,8.69
2019-05-13T04:23:42.799Z,8.06
2019-05-13T04:26:14.673Z,8.31
2019-05-13T04:28:43.397Z,8.18
2019-05-13T04:31:14.174Z,8.65
2019-05-13T04:33:43.089Z,8.60
2019-05-13T04:36:13.358Z,8.17
2019-05-13T04:38:44.107Z,8.43
2019-05-13T04:41:12.645Z,8.29
2019-05-13T04:43:43.485Z,8.40
2019-05-13T04:46:14.040Z,9.06
2019-05-13T04:48:44.225Z,8.76
2019-05-13T04:51:13.775Z,8.67
2019-05-13T04:53:42.826Z,9.14
2019-05-13T04:56:13.804Z,8.89
2019-05-13T04:58:43.099Z,8.85
2019-05-13T05:01:40.226Z,8.91
2019-05-13T05:04:22.372Z,9.34
2019-05-13T05:07:05.856Z,9.44
2019-05-13T05:10:22.101Z,9.23
2019-05-13T05:12:52.041Z,10.05
2019-05-13T05:15:47.086Z,10.13
2019-05-13T05:19:01.813Z,10.06
2019-05-13T05:21:35.292Z,10.24
2019-05-13T05:24:52.046Z,10.65
2019-05-13T05:27:58.147Z,11.02
2019-05-13T05:31:14.456Z,11.29
2019-05-13T05:34:06.530Z,11.35
2019-05-13T05:37:26.184Z,11.86
2019-05-13T05:39:56.185Z,12.12
2019-05-13T05:42:25.462Z,12.15
2019-05-13T05:44:55.433Z,11.64
2019-05-13T05:47:25.617Z,11.50
2019-05-13T05:49:56.726Z,12.45
2019-05-13T05:52:27.298Z,13.01
2019-05-13T05:54:56.312Z,12.57
2019-05-13T05:57:26.758Z,14.43
2019-05-13T05:59:56.650Z,15.28
2019-05-13T06:02:27.904Z,16.12
2019-05-13T06:04:57.440Z,16.90
2019-05-13T06:07:26.026Z,18.23
2019-05-13T06:09:54.687Z,18.61
2019-05-13T06:12:23.554Z,17.65
2019-05-13T06:14:52.646Z,17.45
2019-05-13T06:17:22.016Z,18.36
2019-05-13T06:19:51.330Z,16.29
2019-05-13T06:22:21.704Z,16.04
2019-05-13T06:24:52.163Z,16.49
2019-05-13T06:27:21.473Z,17.77
2019-05-13T06:29:52.562Z,18.47
2019-05-13T06:32:25.458Z,19.15
2019-05-13T06:34:52.523Z,18.85
2019-05-13T06:37:21.889Z,20.38
2019-05-13T06:39:51.292Z,21.11
2019-05-13T06:42:22.215Z,21.16
2019-05-13T06:44:51.372Z,22.08
2019-05-13T06:47:21.979Z,21.60
2019-05-13T06:49:51.621Z,23.03
2019-05-13T06:52:21.345Z,23.22
2019-05-13T06:54:52.064Z,22.78
2019-05-13T06:57:22.031Z,22.81
2019-05-13T06:59:52.413Z,22.11
2019-05-13T07:02:21.713Z,22.95
2019-05-13T07:04:51.613Z,23.32
2019-05-13T07:07:21.969Z,22.14
2019-05-13T07:09:51.748Z,23.86
2019-05-13T07:12:21.985Z,24.73
2019-05-13T07:14:51.810Z,23.87
2019-05-13T07:17:22.258Z,26.24
2019-05-13T07:19:51.638Z,24.35
2019-05-13T07:22:22.937Z,26.07
2019-05-13T07:24:51.974Z,25.26
2019-05-13T07:27:22.951Z,24.53
2019-05-13T07:29:53.608Z,27.01
2019-05-13T07:32:22.245Z,25.62
2019-05-13T07:34:53.315Z,23.74
2019-05-13T07:37:22.071Z,26.83
2019-05-13T07:39:53.017Z,26.75
2019-05-13T07:42:22.220Z,26.62
2019-05-13T07:44:52.224Z,26.10
2019-05-13T07:47:22.284Z,26.87
2019-05-13T07:49:51.652Z,25.56
2019-05-13T07:52:22.781Z,26.40
2019-05-13T07:54:52.043Z,25.37
2019-05-13T07:57:21.519Z,25.48
2019-05-13T07:59:52.251Z,26.44
2019-05-13T08:02:21.686Z,26.22
2019-05-13T08:04:53.087Z,24.76
2019-05-13T08:07:22.601Z,25.94
2019-05-13T08:09:55.156Z,25.62
2019-05-13T08:12:21.879Z,26.45
2019-05-13T08:14:52.167Z,27.25
2019-05-13T08:17:22.452Z,28.50
2019-05-13T08:19:52.086Z,27.79
2019-05-13T08:22:22.051Z,25.11
2019-05-13T08:24:53.812Z,27.05
2019-05-13T08:27:30.000Z,27.22
2019-05-13T08:29:52.327Z,29.04
2019-05-13T08:32:22.141Z,26.87
2019-05-13T08:34:52.474Z,25.13
2019-05-13T08:37:21.789Z,25.17
2019-05-13T08:39:52.222Z,27.43
2019-05-13T08:42:23.357Z,25.72
2019-05-13T08:44:52.409Z,26.68
2019-05-13T08:47:22.453Z,24.95
2019-05-13T08:49:52.053Z,27.16
2019-05-13T08:52:21.921Z,26.18
2019-05-13T08:54:52.387Z,28.14
2019-05-13T08:57:22.172Z,26.43
2019-05-13T08:59:51.712Z,26.44
2019-05-13T09:02:22.227Z,26.61
2019-05-13T09:04:51.617Z,27.00
2019-05-13T09:07:24.113Z,27.78
2019-05-13T09:09:51.301Z,25.18
2019-05-13T09:12:29.533Z,24.82
2019-05-13T09:14:52.394Z,24.77
2019-05-13T09:17:21.330Z,26.90
2019-05-13T09:19:51.981Z,27.09
2019-05-13T09:22:21.450Z,28.19
2019-05-13T09:24:52.841Z,26.63
2019-05-13T09:27:22.567Z,25.88
2019-05-13T09:29:51.873Z,25.39
2019-05-13T09:32:21.647Z,25.69
2019-05-13T09:34:52.508Z,25.77
2019-05-13T09:37:22.406Z,25.46
2019-05-13T09:39:51.898Z,25.05
2019-05-13T09:42:21.738Z,26.70
2019-05-13T09:44:52.522Z,27.76
2019-05-13T09:47:21.691Z,26.49
2019-05-13T09:49:50.414Z,27.56
2019-05-13T09:52:19.012Z,26.49
2019-05-13T09:54:48.667Z,27.87
2019-05-13T09:57:17.363Z,26.13
2019-05-13T09:59:46.311Z,26.95
2019-05-13T10:02:15.185Z,26.12
2019-05-13T10:04:44.114Z,27.56
2019-05-13T10:07:13.376Z,26.58
2019-05-13T10:09:43.185Z,26.49
2019-05-13T10:12:13.235Z,26.48
2019-05-13T10:14:41.919Z,26.03
2019-05-13T10:17:12.936Z,24.55
2019-05-13T10:19:42.018Z,26.21
2019-05-13T10:22:11.998Z,28.41
2019-05-13T10:24:42.388Z,25.91
2019-05-13T10:27:12.215Z,27.02
2019-05-13T10:29:42.447Z,27.81
2019-05-13T10:32:11.425Z,25.17
2019-05-13T10:34:42.612Z,26.08
2019-05-13T10:37:11.739Z,24.25
2019-05-13T10:39:40.639Z,24.31
2019-05-13T10:42:11.820Z,24.97
2019-05-13T10:44:41.661Z,25.85
2019-05-13T10:47:12.047Z,26.36
2019-05-13T10:49:42.509Z,27.07
2019-05-13T10:52:12.256Z,25.13
2019-05-13T10:54:41.644Z,27.33
2019-05-13T10:57:13.353Z,26.80
2019-05-13T10:59:41.012Z,27.54
2019-05-13T11:02:13.103Z,26.86
2019-05-13T11:04:41.789Z,28.70
2019-05-13T11:07:12.077Z,27.94
2019-05-13T11:09:41.865Z,27.44
2019-05-13T11:12:12.294Z,27.45
2019-05-13T11:14:42.175Z,27.10
2019-05-13T11:17:13.183Z,27.54
2019-05-13T11:19:41.644Z,26.87
2019-05-13T11:22:12.298Z,25.85
2019-05-13T11:24:43.201Z,23.84
2019-05-13T11:27:12.035Z,23.88
2019-05-13T11:29:41.504Z,24.67
2019-05-13T11:32:12.997Z,23.99
2019-05-13T11:34:41.994Z,22.95
2019-05-13T11:37:12.323Z,23.15
2019-05-13T11:39:42.790Z,23.66
2019-05-13T11:42:13.531Z,23.58
2019-05-13T11:44:43.017Z,22.66
2019-05-13T11:47:12.699Z,22.33
2019-05-13T11:49:42.515Z,22.19
2019-05-13T11:52:12.060Z,22.94
2019-05-13T11:54:42.529Z,22.88
2019-05-13T11:57:12.504Z,20.96
2019-05-13T11:59:42.963Z,20.91
2019-05-13T12:02:13.596Z,19.77
2019-05-13T12:04:43.199Z,21.40
2019-05-13T12:07:13.478Z,21.52
2019-05-13T12:09:42.194Z,20.49
2019-05-13T12:12:13.240Z,21.00
2019-05-13T12:14:56.920Z,21.21
2019-05-13T12:17:14.093Z,20.45
2019-05-13T12:19:42.100Z,20.81
2019-05-13T12:22:13.103Z,22.09
2019-05-13T12:24:42.249Z,20.18
2019-05-13T12:27:11.588Z,21.23
2019-05-13T12:29:43.055Z,19.70
2019-05-13T12:32:13.548Z,19.84
2019-05-13T12:34:45.601Z,19.68
2019-05-13T12:37:12.339Z,20.07
2019-05-13T12:39:43.904Z,21.35
2019-05-13T12:42:12.734Z,21.48
2019-05-13T12:44:59.861Z,21.68
2019-05-13T12:47:12.287Z,22.12
2019-05-13T12:49:43.855Z,21.01
2019-05-13T12:52:13.153Z,21.72
2019-05-13T12:54:43.930Z,21.46
2019-05-13T12:57:15.702Z,21.33
2019-05-13T12:59:43.657Z,20.25
2019-05-13T13:02:13.533Z,21.26
2019-05-13T13:05:07.389Z,21.26
2019-05-13T13:07:13.537Z,21.89
2019-05-13T13:09:43.258Z,21.45
2019-05-13T13:12:12.178Z,21.68
2019-05-13T13:14:44.405Z,22.75
2019-05-13T13:17:12.832Z,20.59
2019-05-13T13:19:41.978Z,22.30
2019-05-13T13:22:13.197Z,22.59
2019-05-13T13:24:51.290Z,22.29
2019-05-13T13:27:18.968Z,22.00
2019-05-13T13:29:43.361Z,22.43
2019-05-13T13:32:13.383Z,21.26
2019-05-13T13:34:44.100Z,21.79
2019-05-13T13:37:12.941Z,21.88
2019-05-13T13:39:43.180Z,22.00
2019-05-13T13:42:13.084Z,21.93
2019-05-13T13:44:43.043Z,22.46
2019-05-13T13:47:14.948Z,21.30
2019-05-13T13:49:43.874Z,21.02
2019-05-13T13:52:16.176Z,19.68
2019-05-13T13:54:44.370Z,20.23
2019-05-13T13:57:13.758Z,19.77
2019-05-13T14:00:14.179Z,21.58
2019-05-13T14:02:13.831Z,21.83
2019-05-13T14:04:43.387Z,22.24
2019-05-13T14:07:35.929Z,21.62
2019-05-13T14:09:45.485Z,20.94
2019-05-13T14:12:14.260Z,20.48
2019-05-13T14:14:43.445Z,21.27
2019-05-13T14:17:12.151Z,21.06
2019-05-13T14:19:42.211Z,21.22
2019-05-13T14:22:12.633Z,21.39
2019-05-13T14:24:42.578Z,21.20
2019-05-13T14:27:12.202Z,20.82
2019-05-13T14:29:46.117Z,20.97
2019-05-13T14:32:11.760Z,21.23
2019-05-13T14:34:42.081Z,20.93
2019-05-13T14:37:11.697Z,21.08
2019-05-13T14:39:40.860Z,20.17
2019-05-13T14:42:11.651Z,20.73
2019-05-13T14:44:40.120Z,20.98
2019-05-13T14:47:09.457Z,20.74
2019-05-13T14:49:38.080Z,22.06
2019-05-13T14:52:06.821Z,20.18
2019-05-13T14:54:35.632Z,21.02
2019-05-13T14:57:04.879Z,20.67
2019-05-13T14:59:33.624Z,21.03
2019-05-13T15:02:02.403Z,22.18
2019-05-13T15:04:32.561Z,20.88
2019-05-13T15:07:01.470Z,20.74
2019-05-13T15:09:31.449Z,21.62
2019-05-13T15:12:02.119Z,21.44
2019-05-13T15:14:31.907Z,21.50
2019-05-13T15:17:06.262Z,20.74
2019-05-13T15:19:31.782Z,21.26
2019-05-13T15:22:00.526Z,20.90
2019-05-13T15:24:32.004Z,20.11
2019-05-13T15:26:59.641Z,20.45
2019-05-13T15:29:31.130Z,20.98
2019-05-13T15:31:59.030Z,20.24
2019-05-13T15:34:27.765Z,20.89
2019-05-13T15:36:56.462Z,19.18
2019-05-13T15:39:25.345Z,19.93
2019-05-13T15:41:53.935Z,19.70
2019-05-13T15:44:22.688Z,20.36
2019-05-13T15:46:52.330Z,20.80
2019-05-13T15:49:22.064Z,19.88
2019-05-13T15:51:51.150Z,20.27
2019-05-13T15:54:22.123Z,20.22
2019-05-13T15:56:50.196Z,21.37
2019-05-13T15:59:21.446Z,20.18
2019-05-13T16:01:52.272Z,21.17
2019-05-13T16:04:21.355Z,20.29
2019-05-13T16:06:52.143Z,20.57
2019-05-13T16:09:21.157Z,19.81
2019-05-13T16:11:51.994Z,19.90
2019-05-13T16:14:21.987Z,20.01
2019-05-13T16:16:52.265Z,19.89
2019-05-13T16:19:22.021Z,19.46
2019-05-13T16:21:54.881Z,20.28
2019-05-13T16:24:23.742Z,19.99
2019-05-13T16:26:52.721Z,19.93
2019-05-13T16:29:22.433Z,20.18
2019-05-13T16:31:51.973Z,20.73
2019-05-13T16:34:22.274Z,20.07
2019-05-13T16:36:53.063Z,19.95
2019-05-13T16:39:21.558Z,19.31
2019-05-13T16:41:51.644Z,19.30
2019-05-13T16:44:22.491Z,20.04
2019-05-13T16:46:51.250Z,20.09
2019-05-13T16:49:21.258Z,19.32
2019-05-13T16:51:51.790Z,20.06
2019-05-13T16:54:22.038Z,20.89
2019-05-13T16:56:51.772Z,20.15
2019-05-13T16:59:21.172Z,20.20
2019-05-13T17:01:51.279Z,20.13
2019-05-13T17:04:21.536Z,19.58
2019-05-13T17:06:52.993Z,20.35
2019-05-13T17:09:21.947Z,20.20
2019-05-13T17:11:51.923Z,20.00
2019-05-13T17:14:21.563Z,19.71
2019-05-13T17:16:51.856Z,19.08
2019-05-13T17:19:20.594Z,19.89
2019-05-13T17:21:51.815Z,20.15
2019-05-13T17:24:22.405Z,20.37
2019-05-13T17:26:52.228Z,19.79
2019-05-13T17:29:21.162Z,20.21
2019-05-13T17:31:51.470Z,19.28
2019-05-13T17:34:21.155Z,19.00
2019-05-13T17:36:51.982Z,19.97
2019-05-13T17:39:21.308Z,20.17
2019-05-13T17:41:52.229Z,20.31
2019-05-13T17:44:21.951Z,19.98
2019-05-13T17:46:52.219Z,19.12
2019-05-13T17:49:22.123Z,18.98
2019-05-13T17:51:51.729Z,19.80
2019-05-13T17:54:22.159Z,19.89
2019-05-13T17:56:50.946Z,20.01
2019-05-13T17:59:21.683Z,19.65
2019-05-13T18:01:51.686Z,19.85
2019-05-13T18:04:22.618Z,19.56
2019-05-13T18:06:52.303Z,19.16
2019-05-13T18:09:22.324Z,19.23
2019-05-13T18:11:52.853Z,19.77
2019-05-13T18:14:21.766Z,19.35
2019-05-13T18:16:50.577Z,19.06
2019-05-13T18:19:19.426Z,19.40
2019-05-13T18:21:48.051Z,19.19
2019-05-13T18:24:16.640Z,18.84
2019-05-13T18:26:45.301Z,19.28
2019-05-13T18:29:14.145Z,18.65
2019-05-13T18:31:48.731Z,18.87
2019-05-13T18:34:17.549Z,19.00
2019-05-13T18:36:46.168Z,19.50
2019-05-13T18:39:14.933Z,19.00
2019-05-13T18:41:43.649Z,19.23
2019-05-13T18:44:12.534Z,18.99
2019-05-13T18:46:41.883Z,18.87
2019-05-13T18:49:11.973Z,18.94
2019-05-13T18:51:44.242Z,19.02
2019-05-13T18:54:12.978Z,19.22
2019-05-13T18:56:41.976Z,19.29
2019-05-13T18:59:12.497Z,18.71
2019-05-13T19:01:40.881Z,19.06
2019-05-13T19:04:11.437Z,19.13
2019-05-13T19:06:42.377Z,18.60
2019-05-13T19:09:11.242Z,18.51
2019-05-13T19:11:42.452Z,18.64
2019-05-13T19:14:12.265Z,18.19
2019-05-13T19:16:42.199Z,18.14
2019-05-13T19:19:15.559Z,18.05
2019-05-13T19:21:41.719Z,18.09
2019-05-13T19:24:13.156Z,18.22
2019-05-13T19:26:41.678Z,17.98
2019-05-13T19:29:11.547Z,18.27
2019-05-13T19:31:41.783Z,18.42
2019-05-13T19:34:12.475Z,18.40
2019-05-13T19:36:40.978Z,17.51
2019-05-13T19:39:11.374Z,17.22
2019-05-13T19:41:42.077Z,18.14
2019-05-13T19:44:10.462Z,17.99
2019-05-13T19:46:41.899Z,17.77
2019-05-13T19:49:12.102Z,17.51
2019-05-13T19:51:41.625Z,17.71
2019-05-13T19:54:11.762Z,16.83
2019-05-13T19:56:40.465Z,16.83
2019-05-13T19:59:12.413Z,16.70
2019-05-13T20:01:42.341Z,16.09
2019-05-13T20:04:11.101Z,15.92
2019-05-13T20:06:41.482Z,16.06
2019-05-13T20:09:10.482Z,15.91
2019-05-13T20:11:41.795Z,15.91
2019-05-13T20:14:11.876Z,15.79
2019-05-13T20:16:41.683Z,15.74
2019-05-13T20:19:11.839Z,16.11
2019-05-13T20:21:42.585Z,16.13
2019-05-13T20:24:11.849Z,16.38
2019-05-13T20:26:41.400Z,15.92
2019-05-13T20:29:12.398Z,16.07
2019-05-13T20:31:41.385Z,15.83
2019-05-13T20:34:11.817Z,15.68
2019-05-13T20:36:42.254Z,15.14
2019-05-13T20:39:11.700Z,15.75
2019-05-13T20:41:41.436Z,15.34
2019-05-13T20:44:10.190Z,15.17
2019-05-13T20:46:38.800Z,14.96
2019-05-13T20:49:07.513Z,15.28
2019-05-13T20:51:36.349Z,15.24
2019-05-13T20:54:05.036Z,14.63
2019-05-13T20:56:33.786Z,15.23
2019-05-13T20:59:02.476Z,15.01
2019-05-13T21:01:31.500Z,14.94
2019-05-13T21:04:01.818Z,14.97
2019-05-13T21:06:31.586Z,14.71
2019-05-13T21:09:01.507Z,14.74
2019-05-13T21:11:31.088Z,15.20
2019-05-13T21:14:01.184Z,14.20
2019-05-13T21:16:30.055Z,14.71
2019-05-13T21:18:58.694Z,14.28
2019-05-13T21:21:27.594Z,14.31
2019-05-13T21:23:56.244Z,15.11
2019-05-13T21:26:25.057Z,14.12
2019-05-13T21:28:53.897Z,14.69
2019-05-13T21:31:22.528Z,14.47
2019-05-13T21:33:51.441Z,14.23
2019-05-13T21:36:21.671Z,14.34
2019-05-13T21:38:50.544Z,14.17
2019-05-13T21:41:21.169Z,14.05
2019-05-13T21:43:51.895Z,13.98
2019-05-13T21:46:21.242Z,13.86
2019-05-13T21:48:51.978Z,13.83
2019-05-13T21:51:22.167Z,13.86
2019-05-13T21:53:51.897Z,13.81
2019-05-13T21:56:22.900Z,13.33
2019-05-13T21:58:52.184Z,13.53
2019-05-13T22:01:23.303Z,13.43
2019-05-13T22:03:51.550Z,13.02
2019-05-13T22:06:21.838Z,12.72
2019-05-13T22:08:51.802Z,12.58
2019-05-13T22:11:22.251Z,12.63
2019-05-13T22:13:51.522Z,13.01
2019-05-13T22:16:21.583Z,12.78
2019-05-13T22:18:52.320Z,12.63
2019-05-13T22:21:21.151Z,12.73
2019-05-13T22:23:51.768Z,13.15
2019-05-13T22:26:22.090Z,12.98
2019-05-13T22:28:51.236Z,12.61
2019-05-13T22:31:22.089Z,12.92
2019-05-13T22:33:51.872Z,12.68
2019-05-13T22:36:21.304Z,12.35
2019-05-13T22:38:51.628Z,12.51
2019-05-13T22:41:22.226Z,12.36
2019-05-13T22:43:58.065Z,12.13
2019-05-13T22:46:21.576Z,11.97
2019-05-13T22:48:51.290Z,11.53
2019-05-13T22:51:21.372Z,11.83
2019-05-13T22:53:50.047Z,11.78
2019-05-13T22:56:18.655Z,12.51
2019-05-13T22:58:47.356Z,12.16
2019-05-13T23:01:16.257Z,11.70
2019-05-13T23:03:45.040Z,11.94
2019-05-13T23:06:13.902Z,11.87
2019-05-13T23:08:42.537Z,12.14
2019-05-13T23:11:11.249Z,12.07
2019-05-13T23:13:41.954Z,12.09
2019-05-13T23:16:11.567Z,11.63
2019-05-13T23:18:42.081Z,11.25
2019-05-13T23:21:11.475Z,11.07
2019-05-13T23:23:40.445Z,11.36
2019-05-13T23:26:09.067Z,11.31
2019-05-13T23:28:38.679Z,11.60
2019-05-13T23:31:07.319Z,10.84
2019-05-13T23:33:35.949Z,10.78
2019-05-13T23:36:04.690Z,11.12
2019-05-13T23:38:33.566Z,10.90
2019-05-13T23:41:03.488Z,10.92
2019-05-13T23:43:32.238Z,10.38
2019-05-13T23:46:01.351Z,10.55
2019-05-13T23:48:31.974Z,10.53
2019-05-13T23:51:01.368Z,11.31
2019-05-13T23:53:31.522Z,11.17
2019-05-13T23:56:01.993Z,10.53
2019-05-13T23:58:32.204Z,10.54
